Time;durP1;ratioP1;P1;durP2;ratioP2;P2;SDS_P1;SDS_P2;PMS_P1;PMS_P2;Temp;Humidity;BMP_temperature;BMP_pressure;BME280_temperature;BME280_humidity;BME280_pressure;Samples;Min_cycle;Max_cycle;Signal;HPM_P1;HPM_P2
2022/08/20 00:19:17;;;;;;;5.70;4.28;;;21.10;99.90;;;;;;4800503;29;20525;-83
2022/08/20 00:42:11;;;;;;;3.85;3.55;;;21.20;99.90;;;;;;4890337;23;20053;-82
2022/08/20 00:59:49;;;;;;;;;;;;;;;;;;;;;
2022/08/20 01:08:25;;;;;;;7.60;5.78;;;21.10;99.90;;;;;;4858397;29;20053;-83
2022/08/20 01:16:32;;;;;;;8.00;6.47;;;21.00;99.90;;;;;;4810517;29;20050;-83
2022/08/20 01:20:09;;;;;;;7.35;5.35;;;20.90;99.90;;;;;;4843979;29;20408;-83
2022/08/20 01:23:38;;;;;;;5.95;4.97;;;20.90;99.90;;;;;;4836041;29;20472;-83
2022/08/20 01:26:25;;;;;;;5.25;4.72;;;20.80;99.90;;;;;;4829704;29;20038;-82
2022/08/20 01:29:00;;;;;;;6.75;5.63;;;20.70;99.90;;;;;;4825285;29;20041;-83
2022/08/20 01:31:49;;;;;;;5.95;5.35;;;20.70;99.90;;;;;;4845328;29;20048;-83
2022/08/20 01:34:26;;;;;;;7.22;6.15;;;20.70;99.90;;;;;;4827206;29;20504;-83
2022/08/20 01:37:04;;;;;;;6.88;5.88;;;20.70;99.90;;;;;;4852855;29;20042;-83
2022/08/20 01:39:36;;;;;;;9.77;6.75;;;20.60;99.90;;;;;;4827076;29;20033;-83
2022/08/20 01:42:23;;;;;;;7.43;6.00;;;20.60;99.90;;;;;;4812360;29;20041;-84
2022/08/20 01:59:45;;;;;;;6.30;4.50;;;20.20;99.90;;;;;;4728522;30;20036;-84
2022/08/20 02:12:02;;;;;;;10.77;6.15;;;19.90;99.90;;;;;;4820215;29;20049;-82
2022/08/20 02:14:35;;;;;;;7.32;5.85;;;19.90;99.90;;;;;;4843592;29;20049;-85
2022/08/20 02:17:13;;;;;;;7.75;6.00;;;19.90;99.90;;;;;;4844226;29;20366;-84
2022/08/20 02:20:14;;;;;;;7.65;6.25;;;19.90;99.90;;;;;;4827345;29;20038;-84
2022/08/20 02:22:53;;;;;;;6.03;5.43;;;19.90;99.90;;;;;;4838533;29;20034;-83
2022/08/20 02:25:25;;;;;;;6.00;5.13;;;19.90;99.90;;;;;;4843464;29;20042;-83
2022/08/20 02:28:12;;;;;;;8.02;5.78;;;19.90;99.90;;;;;;4825119;29;20529;-83
2022/08/20 02:30:59;;;;;;;7.80;6.22;;;19.90;99.90;;;;;;4810624;29;20034;-83
2022/08/20 02:33:31;;;;;;;6.68;4.97;;;19.90;99.90;;;;;;4840446;29;20040;-83
2022/08/20 02:36:02;;;;;;;6.35;4.68;;;19.90;99.90;;;;;;4825417;29;20046;-83
2022/08/20 02:38:43;;;;;;;6.13;5.28;;;20.00;99.90;;;;;;4845081;29;20052;-83
2022/08/20 04:38:12;;;;;;;;;;;;;;;;;;;;;
2022/08/20 04:42:14;;;;;;;9.77;6.28;;;19.70;99.90;;;;;;4772906;30;20058;-83
2022/08/20 04:57:20;;;;;;;5.57;4.72;;;19.60;99.90;;;;;;4873424;29;20385;-82
2022/08/20 05:01:09;;;;;;;4.78;4.15;;;19.60;99.90;;;;;;4870684;29;20048;-83
2022/08/20 05:04:29;;;;;;;7.78;4.57;;;19.60;99.90;;;;;;4857031;29;20042;-84
2022/08/20 05:07:35;;;;;;;14.25;5.22;;;19.60;99.90;;;;;;4856331;29;20053;-83
2022/08/20 05:10:29;;;;;;;18.90;6.17;;;19.60;99.90;;;;;;4853995;29;20037;-83
2022/08/20 05:13:57;;;;;;;7.78;4.45;;;19.30;99.90;;;;;;4861299;29;20037;-84
2022/08/20 05:17:14;;;;;;;3.42;3.13;;;19.20;99.90;;;;;;4861959;29;20061;-83
2022/08/20 05:20:23;;;;;;;3.30;2.38;;;19.10;99.90;;;;;;4876980;29;20048;-84
2022/08/20 05:22:59;;;;;;;4.95;2.83;;;19.00;99.90;;;;;;4863088;29;20392;-84
2022/08/20 05:25:29;;;;;;;6.20;2.78;;;19.00;99.90;;;;;;4861250;29;20420;-85
2022/08/20 05:28:18;;;;;;;4.68;3.10;;;19.00;99.90;;;;;;4847172;29;20041;-83
2022/08/20 05:30:49;;;;;;;2.88;2.25;;;19.00;99.90;;;;;;4861360;29;20034;-82
2022/08/20 05:33:18;;;;;;;4.13;2.83;;;18.90;99.90;;;;;;4846470;29;20542;-82
2022/08/20 05:35:46;;;;;;;8.60;5.53;;;18.90;99.90;;;;;;4867410;29;20038;-82
2022/08/20 05:38:17;;;;;;;6.85;5.78;;;18.80;99.90;;;;;;4867303;29;20028;-82
2022/08/20 05:40:45;;;;;;;8.20;5.50;;;18.70;99.90;;;;;;4835602;29;20412;-82
2022/08/20 05:43:31;;;;;;;;;;;;;;;;;;;;;
2022/08/20 05:46:06;;;;;;;4.03;2.83;;;18.70;99.90;;;;;;4863328;29;20037;-82
2022/08/20 05:48:34;;;;;;;4.03;3.20;;;18.80;99.90;;;;;;4851675;29;20057;-82
2022/08/20 05:51:31;;;;;;;4.43;2.55;;;18.80;99.90;;;;;;4864180;29;20437;-83
2022/08/20 05:54:39;;;;;;;3.78;2.55;;;18.80;99.90;;;;;;4847152;29;20037;-83
2022/08/20 05:58:07;;;;;;;4.90;3.45;;;18.90;99.90;;;;;;4860826;29;20045;-83
2022/08/20 06:01:33;;;;;;;3.88;2.30;;;18.90;99.90;;;;;;4851010;29;20033;-83
2022/08/20 06:12:08;;;;;;;4.13;1.90;;;18.70;99.90;;;;;;4843260;29;20041;-82
2022/08/20 06:35:56;;;;;;;6.55;5.03;;;19.10;99.90;;;;;;4839700;29;20054;-83
2022/08/20 06:38:22;;;;;;;6.07;4.47;;;19.30;99.90;;;;;;4858353;29;20029;-84
2022/08/20 06:40:48;;;;;;;7.15;4.68;;;19.40;99.90;;;;;;4858231;29;20045;-83
2022/08/20 06:43:15;;;;;;;8.73;4.82;;;19.60;99.90;;;;;;4864141;29;20037;-83
2022/08/20 06:45:42;;;;;;;6.05;4.30;;;19.80;99.90;;;;;;4858756;29;20037;-83
2022/08/20 06:48:13;;;;;;;4.22;3.50;;;19.80;99.90;;;;;;4876951;29;20041;-83
2022/08/20 06:50:42;;;;;;;7.43;4.85;;;19.70;99.90;;;;;;4854969;29;20034;-83
2022/08/20 06:53:11;;;;;;;7.13;4.57;;;19.50;99.90;;;;;;4860285;29;20407;-83
2022/08/20 06:55:40;;;;;;;4.78;3.22;;;19.30;99.90;;;;;;4860485;29;20558;-84
2022/08/20 06:58:10;;;;;;;3.08;2.58;;;19.30;99.90;;;;;;4861164;29;20037;-83
2022/08/20 07:00:39;;;;;;;6.05;2.55;;;19.30;99.90;;;;;;4861370;29;20479;-83
2022/08/20 07:03:05;;;;;;;6.97;3.17;;;19.50;99.90;;;;;;4847144;29;20040;-83
2022/08/20 07:05:35;;;;;;;5.32;3.00;;;19.70;99.90;;;;;;4831816;29;20033;-83
2022/08/20 07:08:02;;;;;;;10.30;4.68;;;19.90;99.90;;;;;;4848174;29;20033;-84
2022/08/20 07:10:29;;;;;;;4.60;3.35;;;19.80;99.90;;;;;;4864170;29;20067;-84
2022/08/20 07:12:58;;;;;;;4.35;3.20;;;19.80;99.90;;;;;;4866587;29;20037;-83
2022/08/20 07:15:25;;;;;;;4.78;2.85;;;19.80;99.90;;;;;;4851712;29;20476;-84
2022/08/20 07:17:54;;;;;;;5.50;2.90;;;19.90;99.90;;;;;;4866954;29;20420;-83
2022/08/20 07:20:21;;;;;;;7.38;3.42;;;20.00;99.90;;;;;;4865976;29;20040;-84
2022/08/20 07:22:47;;;;;;;6.00;3.22;;;20.20;99.90;;;;;;4849890;29;20526;-84
2022/08/20 07:25:17;;;;;;;6.95;2.60;;;20.50;99.90;;;;;;4864867;29;20040;-82
2022/08/20 07:27:44;;;;;;;5.18;2.33;;;20.70;99.90;;;;;;4864982;29;20037;-82
2022/08/20 07:33:09;;;;;;;5.18;2.08;;;20.90;99.90;;;;;;4879002;29;20064;-82
2022/08/20 07:35:35;;;;;;;5.82;1.83;;;20.80;99.90;;;;;;4879557;29;20045;-82
2022/08/20 07:38:01;;;;;;;4.85;2.00;;;20.70;99.90;;;;;;4864607;29;20033;-83
2022/08/20 07:40:29;;;;;;;6.07;2.30;;;20.60;99.90;;;;;;4864083;29;20419;-83
2022/08/20 07:42:59;;;;;;;7.03;2.78;;;20.60;99.90;;;;;;4845898;29;20386;-83
2022/08/20 07:45:26;;;;;;;4.93;2.50;;;20.60;99.90;;;;;;4862364;29;20045;-83
2022/08/20 07:47:52;;;;;;;3.97;2.15;;;20.70;99.90;;;;;;4865139;29;20550;-83
2022/08/20 07:50:23;;;;;;;6.05;2.08;;;20.80;99.90;;;;;;4867164;29;20084;-81
2022/08/20 07:52:53;;;;;;;4.82;2.05;;;20.90;99.90;;;;;;4866420;29;20041;-82
2022/08/20 07:55:20;;;;;;;6.13;1.50;;;20.90;99.90;;;;;;4832863;29;20044;-82
2022/08/20 07:58:30;;;;;;;4.38;1.65;;;21.00;99.90;;;;;;4848209;29;20045;-82
2022/08/20 08:00:58;;;;;;;5.22;1.80;;;21.10;99.90;;;;;;4837753;29;20412;-81
2022/08/20 08:08:43;;;;;;;;;;;;;;;;;;;;;
2022/08/20 08:29:28;;;;;;;2.78;1.08;;;22.20;99.90;;;;;;4918153;29;20056;-84
2022/08/20 08:32:15;;;;;;;3.60;0.73;;;22.20;99.90;;;;;;4929917;23;20057;-82
2022/08/20 08:34:46;;;;;;;6.65;1.10;;;22.30;99.90;;;;;;4883123;29;20057;-82
2022/08/20 08:37:12;;;;;;;4.45;1.25;;;22.30;99.90;;;;;;4850521;29;20037;-82
2022/08/20 08:39:39;;;;;;;6.38;1.65;;;22.30;99.90;;;;;;4867920;29;20033;-82
2022/08/20 08:42:44;;;;;;;6.20;1.17;;;22.40;99.90;;;;;;4878583;29;20042;-82
2022/08/20 08:45:16;;;;;;;5.30;1.17;;;22.40;99.90;;;;;;4828457;29;20052;-83
2022/08/20 08:47:44;;;;;;;4.47;1.35;;;22.40;99.90;;;;;;4861978;29;20030;-81
2022/08/20 08:50:32;;;;;;;4.43;1.17;;;22.50;99.90;;;;;;4847758;29;20104;-82
2022/08/20 08:53:01;;;;;;;4.07;0.80;;;22.50;99.90;;;;;;4845474;29;20037;-83
2022/08/20 08:55:29;;;;;;;3.83;1.00;;;22.60;99.90;;;;;;4855300;29;20045;-83
2022/08/20 08:58:05;;;;;;;3.85;0.88;;;22.70;99.90;;;;;;4845479;29;20041;-83
2022/08/20 09:00:40;;;;;;;4.85;1.08;;;22.90;99.90;;;;;;4836013;29;20034;-83
2022/08/20 09:03:18;;;;;;;3.70;0.88;;;23.00;99.90;;;;;;4836470;29;20041;-82
2022/08/20 09:05:58;;;;;;;4.70;0.80;;;23.10;99.90;;;;;;4877690;29;20038;-83
2022/08/20 09:08:37;;;;;;;3.88;0.88;;;23.20;99.90;;;;;;4837785;29;20508;-82
2022/08/20 09:11:05;;;;;;;3.70;0.90;;;23.30;99.90;;;;;;4865941;29;20056;-82
2022/08/20 09:13:35;;;;;;;4.32;1.10;;;23.30;99.90;;;;;;4852524;29;20046;-83
2022/08/20 09:16:12;;;;;;;5.63;0.90;;;23.40;99.90;;;;;;4828314;29;20052;-82
2022/08/20 09:18:39;;;;;;;6.00;0.85;;;23.60;99.90;;;;;;4858748;29;20543;-83
2022/08/20 09:21:33;;;;;;;4.38;0.98;;;23.80;99.90;;;;;;4865048;29;20036;-83
2022/08/20 09:23:59;;;;;;;3.70;0.80;;;24.00;99.90;;;;;;4872922;29;20029;-86
2022/08/20 09:26:26;;;;;;;4.68;0.70;;;24.30;99.90;;;;;;4859466;29;20041;-85
2022/08/20 09:28:52;;;;;;;4.63;0.80;;;24.50;99.90;;;;;;4863764;29;20049;-84
2022/08/20 09:39:46;;;;;;;2.97;0.75;;;24.30;99.90;;;;;;5037927;23;20084;-84
2022/08/20 09:42:16;;;;;;;4.13;0.90;;;24.30;99.90;;;;;;4842601;29;20037;-83
2022/08/20 09:44:43;;;;;;;3.67;0.75;;;24.50;99.90;;;;;;4855656;29;20480;-83
2022/08/20 09:47:16;;;;;;;4.15;1.17;;;25.00;99.90;;;;;;4857731;29;20519;-83
2022/08/20 09:49:43;;;;;;;4.85;1.05;;;25.40;99.90;;;;;;4853448;29;20029;-84
2022/08/20 09:52:35;;;;;;;2.97;0.98;;;25.40;99.90;;;;;;4829442;29;20038;-83
2022/08/20 09:55:08;;;;;;;3.58;1.13;;;25.40;99.90;;;;;;4848836;29;20076;-83
2022/08/20 09:57:34;;;;;;;7.40;1.13;;;25.30;99.40;;;;;;4837781;29;20041;-82
2022/08/20 10:00:07;;;;;;;6.32;0.95;;;25.10;98.90;;;;;;4851343;29;20041;-84
2022/08/20 10:02:39;;;;;;;4.65;0.75;;;24.90;98.90;;;;;;4842282;29;20527;-83
2022/08/20 10:05:06;;;;;;;2.22;0.75;;;24.80;98.10;;;;;;4836020;29;20042;-83
2022/08/20 10:07:33;;;;;;;2.67;0.70;;;24.80;98.40;;;;;;4846293;29;20038;-83
2022/08/20 10:10:04;;;;;;;6.15;1.20;;;24.90;98.60;;;;;;4842445;29;20045;-83
2022/08/20 10:12:30;;;;;;;2.72;0.60;;;25.00;98.30;;;;;;4844642;29;20045;-83
2022/08/20 10:14:57;;;;;;;3.83;0.80;;;25.30;97.90;;;;;;4855397;29;20056;-84
2022/08/20 10:17:23;;;;;;;6.88;1.25;;;25.60;96.90;;;;;;4853732;29;20497;-83
2022/08/20 10:19:49;;;;;;;3.95;0.80;;;25.80;96.50;;;;;;4838774;29;20029;-83
2022/08/20 10:22:16;;;;;;;5.10;1.00;;;25.80;96.30;;;;;;4822520;29;20041;-83
2022/08/20 10:24:42;;;;;;;4.30;0.63;;;25.70;95.20;;;;;;4829875;29;20041;-84
2022/08/20 10:27:23;;;;;;;4.25;0.85;;;25.40;94.90;;;;;;4832267;29;20505;-85
2022/08/20 10:29:50;;;;;;;3.58;0.70;;;25.60;95.60;;;;;;4831443;29;20060;-85
2022/08/20 10:32:16;;;;;;;6.25;0.90;;;25.80;95.20;;;;;;4832556;29;20044;-84
2022/08/20 10:34:45;;;;;;;6.20;0.90;;;26.00;94.70;;;;;;4835664;29;20057;-84
2022/08/20 10:37:18;;;;;;;3.92;0.80;;;26.20;94.30;;;;;;4836380;29;20033;-84
2022/08/20 10:39:46;;;;;;;3.55;0.52;;;26.50;94.30;;;;;;4850064;29;20041;-85
2022/08/20 10:42:13;;;;;;;5.10;1.00;;;26.80;94.10;;;;;;4832924;29;20037;-83
2022/08/20 10:44:39;;;;;;;5.85;1.02;;;27.10;93.80;;;;;;4838235;29;20030;-83
2022/08/20 10:47:24;;;;;;;6.78;1.10;;;27.00;92.50;;;;;;4841091;29;20057;-83
2022/08/20 10:49:52;;;;;;;3.05;0.63;;;26.70;91.30;;;;;;4830464;29;20352;-84
2022/08/20 10:52:20;;;;;;;3.25;0.75;;;26.40;91.70;;;;;;4858386;29;20050;-84
2022/08/20 10:54:47;;;;;;;3.38;0.73;;;26.10;92.30;;;;;;4823145;29;20057;-84
2022/08/20 10:57:20;;;;;;;4.40;0.60;;;25.90;92.80;;;;;;4840001;29;20535;-84
2022/08/20 10:59:48;;;;;;;3.60;0.70;;;25.90;93.20;;;;;;4816222;29;20508;-83
2022/08/20 11:02:15;;;;;;;4.43;1.23;;;26.40;93.40;;;;;;4838517;29;20531;-83
2022/08/20 11:04:41;;;;;;;3.10;0.50;;;26.90;91.90;;;;;;4833961;29;20030;-84
2022/08/20 11:07:14;;;;;;;4.70;1.05;;;27.50;91.70;;;;;;4837189;29;20025;-84
2022/08/20 11:09:41;;;;;;;4.85;0.80;;;27.80;89.00;;;;;;4831382;29;20038;-83
2022/08/20 11:12:09;;;;;;;2.65;0.70;;;27.50;88.60;;;;;;4837565;29;20496;-85
2022/08/20 11:14:35;;;;;;;4.22;0.90;;;27.10;89.10;;;;;;4825006;29;20041;-84
2022/08/20 11:17:02;;;;;;;3.55;0.80;;;27.20;89.40;;;;;;4821198;29;20041;-85
2022/08/20 11:19:29;;;;;;;4.13;0.80;;;27.70;88.30;;;;;;4845221;29;20045;-84
2022/08/20 11:21:56;;;;;;;3.83;0.60;;;28.60;86.80;;;;;;4851481;29;20092;-85
2022/08/20 11:24:23;;;;;;;4.90;0.82;;;29.40;85.40;;;;;;4821951;29;20512;-83
2022/08/20 11:26:52;;;;;;;3.88;0.70;;;30.00;81.00;;;;;;4829789;29;20045;-85
2022/08/20 11:29:21;;;;;;;4.72;0.90;;;30.40;79.70;;;;;;4812865;29;20057;-84
2022/08/20 11:31:48;;;;;;;5.30;0.85;;;30.60;76.40;;;;;;4825742;29;20046;-84
2022/08/20 11:34:15;;;;;;;3.53;0.80;;;30.70;75.00;;;;;;4850135;29;20511;-85
2022/08/20 11:36:43;;;;;;;5.25;0.90;;;30.90;75.00;;;;;;4826992;29;20054;-84
2022/08/20 11:41:53;;;;;;;4.10;0.90;;;31.80;73.70;;;;;;4821501;29;20051;-86
2022/08/20 11:44:28;;;;;;;4.80;0.88;;;32.20;72.00;;;;;;4821811;29;20490;-85
2022/08/20 11:47:35;;;;;;;2.95;0.60;;;32.60;69.70;;;;;;4820455;29;20041;-85
2022/08/20 11:50:37;;;;;;;3.90;0.70;;;33.10;67.80;;;;;;4828977;29;20050;-84
2022/08/20 11:53:47;;;;;;;3.10;0.70;;;32.60;66.80;;;;;;4820037;29;20043;-84
2022/08/20 11:57:23;;;;;;;3.88;0.60;;;31.80;66.40;;;;;;4818370;29;20038;-83
2022/08/20 12:00:24;;;;;;;6.85;1.33;;;32.10;67.00;;;;;;4821009;29;20060;-84
2022/08/20 12:03:44;;;;;;;2.95;0.60;;;32.90;61.80;;;;;;4827069;29;20030;-86
2022/08/20 12:07:16;;;;;;;5.35;1.10;;;32.30;61.60;;;;;;4832983;29;20116;-86
2022/08/20 12:09:53;;;;;;;3.75;0.60;;;31.80;60.80;;;;;;4797576;29;20057;-84
2022/08/20 12:12:32;;;;;;;5.70;0.98;;;31.10;62.40;;;;;;4797677;29;20350;-83
2022/08/20 12:16:42;;;;;;;;;;;;;;;;;;;;;
2022/08/20 12:20:19;;;;;;;3.95;0.60;;;29.30;64.50;;;;;;4828475;29;20539;-83
2022/08/20 12:24:28;;;;;;;5.25;0.88;;;29.10;64.70;;;;;;4820185;29;20397;-85
2022/08/20 12:28:26;;;;;;;3.88;0.80;;;29.00;65.00;;;;;;4788775;29;20034;-83
2022/08/20 12:36:07;;;;;;;3.45;0.77;;;32.70;59.40;;;;;;4802206;29;20053;-82
2022/08/20 12:38:33;;;;;;;3.78;0.65;;;34.50;57.00;;;;;;4792424;29;20035;-82
2022/08/20 12:41:34;;;;;;;3.38;0.68;;;35.00;54.20;;;;;;4780094;29;20405;-82
2022/08/20 12:44:48;;;;;;;4.88;0.80;;;34.40;53.60;;;;;;4793488;29;20075;-83
2022/08/20 12:47:49;;;;;;;5.25;0.90;;;33.20;54.50;;;;;;4794381;29;20047;-82
2022/08/20 12:50:24;;;;;;;4.00;0.80;;;32.70;53.90;;;;;;4793574;29;20043;-82
2022/08/20 12:53:25;;;;;;;5.28;0.73;;;32.60;54.00;;;;;;4820551;29;20043;-82
2022/08/20 13:00:20;;;;;;;3.83;0.80;;;33.90;50.30;;;;;;4812549;29;20034;-84
2022/08/20 13:02:47;;;;;;;3.75;0.50;;;34.20;51.00;;;;;;4833693;29;20038;-85
2022/08/20 13:05:15;;;;;;;3.65;0.57;;;35.00;50.30;;;;;;4834007;29;20034;-84
2022/08/20 13:07:43;;;;;;;3.80;0.60;;;35.20;50.00;;;;;;4829296;29;20417;-84
2022/08/20 13:10:13;;;;;;;3.72;0.73;;;34.60;49.10;;;;;;4814181;29;20058;-84
2022/08/20 13:12:39;;;;;;;5.22;1.48;;;34.90;49.10;;;;;;4830562;29;20035;-84
2022/08/20 13:15:05;;;;;;;4.15;1.20;;;35.80;48.60;;;;;;4828829;29;20046;-84
2022/08/20 13:17:32;;;;;;;5.30;1.35;;;36.80;47.40;;;;;;4828624;29;20026;-83
2022/08/20 13:19:58;;;;;;;4.97;0.90;;;37.40;46.40;;;;;;4829464;29;20041;-84
2022/08/20 13:22:24;;;;;;;4.60;1.13;;;38.10;46.30;;;;;;4828129;29;20058;-85
2022/08/20 13:24:51;;;;;;;2.85;0.70;;;38.60;44.80;;;;;;4828088;29;20034;-83
2022/08/20 13:27:18;;;;;;;3.75;0.73;;;38.60;44.30;;;;;;4827046;29;20409;-84
2022/08/20 13:29:50;;;;;;;4.32;0.70;;;37.70;44.70;;;;;;4842012;29;20098;-84
2022/08/20 13:32:16;;;;;;;3.97;0.77;;;36.60;45.60;;;;;;4810282;29;20049;-84
2022/08/20 13:34:44;;;;;;;4.93;0.93;;;36.50;46.70;;;;;;4846364;29;20049;-84
2022/08/20 13:37:15;;;;;;;5.20;0.65;;;36.40;45.10;;;;;;4846091;29;20045;-86
2022/08/20 13:39:42;;;;;;;3.35;0.70;;;35.70;45.50;;;;;;4829614;29;20026;-86
2022/08/20 13:42:09;;;;;;;2.67;0.50;;;34.80;46.00;;;;;;4829177;29;20046;-85
2022/08/20 13:44:36;;;;;;;3.33;0.63;;;34.60;46.80;;;;;;4825258;29;20493;-83
2022/08/20 13:47:23;;;;;;;4.35;0.70;;;35.40;45.00;;;;;;4840364;29;20123;-82
2022/08/20 13:49:59;;;;;;;2.45;0.60;;;36.50;43.20;;;;;;4824481;29;20481;-84
2022/08/20 13:52:26;;;;;;;5.32;0.80;;;36.40;43.40;;;;;;4830904;29;20061;-85
2022/08/20 13:54:52;;;;;;;3.33;0.80;;;35.90;44.00;;;;;;4812138;29;20038;-84
2022/08/20 13:57:20;;;;;;;3.40;0.70;;;36.60;44.20;;;;;;4828389;29;20038;-84
2022/08/20 13:59:49;;;;;;;4.32;0.80;;;37.40;43.40;;;;;;4820807;29;20054;-85
2022/08/20 14:02:17;;;;;;;3.95;0.52;;;37.70;42.60;;;;;;4836014;29;20030;-84
2022/08/20 14:04:44;;;;;;;3.25;0.80;;;36.80;43.40;;;;;;4850018;29;20033;-85
2022/08/20 14:07:15;;;;;;;2.90;0.57;;;36.00;44.00;;;;;;4822823;29;20034;-85
2022/08/20 14:09:44;;;;;;;3.55;0.73;;;36.40;43.50;;;;;;4824679;29;20046;-84
2022/08/20 14:12:12;;;;;;;4.18;0.60;;;37.40;42.50;;;;;;4821066;29;21967;-86
2022/08/20 14:14:39;;;;;;;3.75;0.70;;;37.90;41.80;;;;;;4818562;29;20042;-86
2022/08/20 14:17:19;;;;;;;2.20;0.70;;;38.50;41.70;;;;;;4824757;29;20038;-83
2022/08/20 14:19:47;;;;;;;4.03;0.75;;;38.30;41.40;;;;;;4818953;29;20046;-83
2022/08/20 14:22:16;;;;;;;3.63;0.88;;;37.50;42.10;;;;;;4822491;29;20485;-83
2022/08/20 14:24:44;;;;;;;2.92;0.70;;;37.50;42.70;;;;;;4838952;29;20030;-85
2022/08/20 14:27:12;;;;;;;3.30;0.80;;;37.30;42.60;;;;;;4806296;29;20524;-83
2022/08/20 14:29:41;;;;;;;5.13;0.68;;;36.30;43.00;;;;;;4836097;29;20382;-85
2022/08/20 14:32:08;;;;;;;4.43;0.85;;;35.00;44.30;;;;;;4828269;29;20034;-82
2022/08/20 14:34:36;;;;;;;4.32;1.00;;;33.70;45.10;;;;;;4838084;29;20050;-85
2022/08/20 14:37:15;;;;;;;3.00;0.70;;;32.60;46.60;;;;;;4843268;29;21061;-86
2022/08/20 14:39:43;;;;;;;4.30;1.08;;;31.70;47.80;;;;;;4825500;29;20035;-84
2022/08/20 14:42:09;;;;;;;6.18;1.15;;;31.80;48.10;;;;;;4815382;29;20050;-85
2022/08/20 14:44:36;;;;;;;3.65;0.88;;;33.20;46.90;;;;;;4828677;29;20034;-86
2022/08/20 14:47:33;;;;;;;4.90;0.63;;;34.80;44.90;;;;;;4823548;29;20034;-85
2022/08/20 14:50:04;;;;;;;4.63;0.70;;;35.90;43.50;;;;;;4821608;29;20050;-86
2022/08/20 14:52:32;;;;;;;3.33;0.80;;;35.50;44.10;;;;;;4836265;29;20042;-87
2022/08/20 14:54:58;;;;;;;4.78;0.70;;;34.50;45.00;;;;;;4834549;29;20533;-85
2022/08/20 14:57:25;;;;;;;2.65;0.63;;;33.60;46.00;;;;;;4807516;29;20053;-85
2022/08/20 14:59:51;;;;;;;3.35;0.70;;;32.80;47.20;;;;;;4805110;29;20038;-86
2022/08/20 15:02:17;;;;;;;2.95;0.60;;;32.10;48.30;;;;;;4823772;29;20401;-85
2022/08/20 15:04:45;;;;;;;3.90;0.60;;;31.50;49.20;;;;;;4825017;29;20035;-83
2022/08/20 15:07:24;;;;;;;3.67;0.60;;;30.90;49.10;;;;;;4824310;29;20038;-85
2022/08/20 15:09:52;;;;;;;2.95;0.55;;;30.30;50.10;;;;;;4825578;29;20046;-84
2022/08/20 15:12:18;;;;;;;3.10;0.70;;;29.90;50.30;;;;;;4824344;29;20038;-84
2022/08/20 15:14:45;;;;;;;4.57;0.93;;;29.60;50.90;;;;;;4822148;29;20054;-85
2022/08/20 15:17:20;;;;;;;3.10;0.70;;;29.30;51.90;;;;;;4806513;29;20505;-84
2022/08/20 15:19:47;;;;;;;4.25;0.60;;;29.10;52.40;;;;;;4823209;29;20045;-85
2022/08/20 15:22:14;;;;;;;6.05;1.00;;;28.90;53.00;;;;;;4808806;29;20034;-84
2022/08/20 15:24:40;;;;;;;5.88;0.82;;;28.60;53.00;;;;;;4824915;29;20031;-87
2022/08/20 15:27:21;;;;;;;4.82;0.80;;;28.50;53.80;;;;;;4808986;29;20042;-84
2022/08/20 15:29:48;;;;;;;2.60;0.60;;;28.30;54.00;;;;;;4838809;29;20038;-84
2022/08/20 15:32:14;;;;;;;4.15;0.70;;;28.10;54.40;;;;;;4824255;29;20038;-85
2022/08/20 15:34:41;;;;;;;3.78;0.88;;;27.90;54.70;;;;;;4824574;29;20034;-84
2022/08/20 15:37:11;;;;;;;4.30;0.80;;;27.70;55.30;;;;;;4804998;29;20043;-84
2022/08/20 15:39:39;;;;;;;4.03;1.15;;;27.50;56.00;;;;;;4825673;29;20042;-84
2022/08/20 15:42:06;;;;;;;4.88;0.75;;;27.20;56.60;;;;;;4810846;29;20045;-84
2022/08/20 15:44:34;;;;;;;4.32;0.68;;;27.10;56.90;;;;;;4825776;29;20037;-85
2022/08/20 15:47:12;;;;;;;3.95;0.90;;;27.00;57.50;;;;;;4825856;29;20381;-84
2022/08/20 15:49:39;;;;;;;3.75;0.60;;;27.00;58.00;;;;;;4822134;29;20042;-84
2022/08/20 15:52:06;;;;;;;3.03;0.60;;;26.90;58.10;;;;;;4823902;29;20034;-84
2022/08/20 15:54:32;;;;;;;5.90;1.13;;;26.80;58.20;;;;;;4809807;29;20050;-85
2022/08/20 15:57:11;;;;;;;4.53;0.98;;;26.80;58.40;;;;;;4824490;29;20453;-84
2022/08/20 15:59:43;;;;;;;4.22;0.50;;;26.90;58.80;;;;;;4831982;29;20049;-84
2022/08/20 16:02:34;;;;;;;4.28;0.73;;;26.90;58.80;;;;;;4845656;29;20038;-82
2022/08/20 16:05:15;;;;;;;4.03;0.75;;;26.80;59.00;;;;;;4837750;29;20043;-82
2022/08/20 16:07:47;;;;;;;4.78;1.00;;;26.60;59.20;;;;;;4826088;29;20030;-82
2022/08/20 16:10:21;;;;;;;;;;;26.50;59.80;;;;;;4846767;29;20408;-81
2022/08/20 16:12:52;;;;;;;4.38;1.27;;;26.40;60.20;;;;;;4826510;29;19917;-82
2022/08/20 16:15:31;;;;;;;4.20;0.85;;;26.30;60.50;;;;;;4824449;29;20034;-83
2022/08/20 16:18:09;;;;;;;4.90;1.50;;;26.30;60.60;;;;;;4836406;29;20050;-82
2022/08/20 16:20:48;;;;;;;5.38;1.10;;;26.30;61.10;;;;;;4830219;29;20040;-82
2022/08/20 16:23:18;;;;;;;5.40;1.17;;;26.20;61.70;;;;;;4830537;29;20038;-82
2022/08/20 16:25:47;;;;;;;3.95;0.98;;;26.20;62.20;;;;;;4831956;29;20035;-82
2022/08/20 16:28:22;;;;;;;4.63;1.20;;;26.20;62.70;;;;;;4844534;29;20505;-81
2022/08/20 16:30:56;;;;;;;2.47;0.70;;;26.20;63.10;;;;;;4831051;29;20041;-83
2022/08/20 16:33:36;;;;;;;2.92;0.82;;;26.10;63.50;;;;;;4841241;29;20038;-82
2022/08/20 16:36:34;;;;;;;5.15;0.70;;;26.00;63.90;;;;;;4846479;29;20407;-82
2022/08/20 16:39:07;;;;;;;2.75;0.60;;;25.90;64.40;;;;;;4846434;29;20046;-84
2022/08/20 16:41:44;;;;;;;3.13;0.60;;;25.70;64.70;;;;;;4842955;29;20039;-85
2022/08/20 16:44:23;;;;;;;2.97;0.52;;;25.60;65.20;;;;;;4824496;29;20782;-85
2022/08/20 16:46:57;;;;;;;2.70;0.70;;;25.50;65.40;;;;;;4811775;29;20061;-84
2022/08/20 16:49:29;;;;;;;2.88;0.63;;;25.30;65.80;;;;;;4815425;29;20497;-86
2022/08/20 16:51:58;;;;;;;2.88;0.88;;;25.20;65.70;;;;;;4847405;29;20038;-84
2022/08/20 16:54:25;;;;;;;3.30;0.80;;;25.10;65.80;;;;;;4836397;29;20037;-84
2022/08/20 16:57:05;;;;;;;5.85;0.73;;;25.00;66.00;;;;;;4835466;29;20069;-85
2022/08/20 16:59:31;;;;;;;5.53;0.80;;;24.80;66.30;;;;;;4825934;29;20041;-85
2022/08/20 17:02:09;;;;;;;2.75;0.50;;;24.70;66.70;;;;;;4826937;29;20038;-85
2022/08/20 17:04:47;;;;;;;2.90;0.68;;;24.70;67.00;;;;;;4809775;29;20030;-85
2022/08/20 17:07:23;;;;;;;1.70;0.60;;;24.60;67.80;;;;;;4829555;29;20037;-86
2022/08/20 17:09:52;;;;;;;3.58;0.70;;;24.60;68.00;;;;;;4817657;29;20054;-84
2022/08/20 17:12:22;;;;;;;3.85;0.98;;;24.50;68.50;;;;;;4827278;29;20428;-84
2022/08/20 17:14:52;;;;;;;4.07;0.90;;;24.50;69.00;;;;;;4829543;29;20390;-84
2022/08/20 17:17:24;;;;;;;4.45;0.95;;;24.40;69.30;;;;;;4816061;29;20390;-84
2022/08/20 17:19:56;;;;;;;3.17;0.90;;;24.30;69.60;;;;;;4814049;29;20461;-83
2022/08/20 17:22:24;;;;;;;5.63;1.00;;;24.20;69.80;;;;;;4827213;29;20034;-83
2022/08/20 17:24:50;;;;;;;2.75;0.60;;;24.20;70.00;;;;;;4840886;29;20042;-84
2022/08/20 17:27:31;;;;;;;5.35;0.95;;;24.10;70.10;;;;;;4827572;29;20393;-84
2022/08/20 17:30:16;;;;;;;4.03;0.60;;;24.10;70.20;;;;;;4838056;29;20039;-83
2022/08/20 17:33:04;;;;;;;3.92;0.63;;;24.00;70.40;;;;;;4844140;29;20493;-85
2022/08/20 17:35:41;;;;;;;4.43;0.60;;;24.00;70.80;;;;;;4823693;29;20043;-85
2022/08/20 17:38:33;;;;;;;4.18;0.70;;;23.80;71.00;;;;;;4807270;29;20039;-83
2022/08/20 17:41:06;;;;;;;7.13;3.33;;;23.70;71.20;;;;;;4808049;29;20038;-82
2022/08/20 17:43:33;;;;;;;6.32;1.63;;;23.60;71.30;;;;;;4807612;29;20038;-83
2022/08/20 17:46:05;;;;;;;10.45;5.07;;;23.60;71.60;;;;;;4824185;29;20042;-84
2022/08/20 17:48:37;;;;;;;4.68;1.55;;;23.50;72.20;;;;;;4823777;29;20049;-83
2022/08/20 17:51:19;;;;;;;3.05;1.17;;;23.50;72.70;;;;;;4841448;29;20042;-84
2022/08/20 17:54:01;;;;;;;4.80;0.80;;;23.40;73.50;;;;;;4842408;29;20061;-84
2022/08/20 17:56:32;;;;;;;4.05;0.70;;;23.30;74.10;;;;;;4822995;29;20053;-84
2022/08/20 17:59:04;;;;;;;3.10;0.80;;;23.20;74.40;;;;;;4824027;29;20041;-83
2022/08/20 18:01:31;;;;;;;3.40;0.80;;;23.20;74.90;;;;;;4806619;29;20038;-83
2022/08/20 18:03:57;;;;;;;5.47;1.40;;;23.10;75.00;;;;;;4808357;29;20049;-83
2022/08/20 18:06:33;;;;;;;2.78;1.10;;;23.00;75.30;;;;;;4830501;29;20520;-82
2022/08/20 18:09:20;;;;;;;3.35;0.80;;;23.00;75.70;;;;;;4849113;29;20042;-84
2022/08/20 18:11:58;;;;;;;3.83;0.70;;;22.90;76.00;;;;;;4850841;29;20042;-83
2022/08/20 18:14:41;;;;;;;3.10;0.90;;;22.80;76.00;;;;;;4852059;29;20036;-84
2022/08/20 18:17:15;;;;;;;1.55;0.57;;;22.70;76.20;;;;;;4847515;29;20046;-86
2022/08/20 18:20:07;;;;;;;3.28;1.10;;;22.60;76.40;;;;;;4852652;29;20053;-83
2022/08/20 18:22:42;;;;;;;5.10;1.33;;;22.50;76.70;;;;;;4832846;29;20085;-82
2022/08/20 18:25:30;;;;;;;4.55;0.80;;;22.40;76.80;;;;;;4831933;29;20045;-83
2022/08/20 18:28:08;;;;;;;2.10;0.60;;;22.30;77.10;;;;;;4844656;29;20046;-84
2022/08/20 18:30:44;;;;;;;2.35;0.82;;;22.20;77.20;;;;;;4845612;29;20038;-86
2022/08/20 18:33:11;;;;;;;3.38;0.70;;;22.20;77.40;;;;;;4843576;29;20046;-84
2022/08/20 18:35:40;;;;;;;2.75;0.50;;;22.10;77.60;;;;;;4814241;29;20033;-84
2022/08/20 18:38:23;;;;;;;3.03;0.77;;;22.00;78.00;;;;;;4813142;29;20034;-84